createdAt,value
2018-03-31T00:00:05.066Z,13.30
2018-03-31T00:02:32.874Z,10.80
2018-03-31T00:04:59.920Z,11.00
2018-03-31T00:07:26.982Z,10.40
2018-03-31T00:09:54.062Z,11.80
2018-03-31T00:12:21.122Z,10.47
2018-03-31T00:14:48.931Z,9.50
2018-03-31T00:17:15.996Z,11.00
2018-03-31T00:19:43.030Z,16.30
2018-03-31T00:22:10.103Z,13.30
2018-03-31T00:24:37.141Z,10.70
2018-03-31T00:27:04.211Z,14.50
2018-03-31T00:29:31.257Z,11.90
2018-03-31T00:31:58.325Z,11.87
2018-03-31T00:34:26.139Z,11.47
2018-03-31T00:36:53.197Z,10.07
2018-03-31T00:39:20.248Z,10.80
2018-03-31T00:41:47.326Z,11.07
2018-03-31T00:44:14.371Z,10.40
2018-03-31T00:46:41.406Z,10.50
2018-03-31T00:49:08.708Z,11.70
2018-03-31T00:51:35.778Z,11.47
2018-03-31T00:54:02.843Z,10.30
2018-03-31T00:56:29.882Z,9.63
2018-03-31T00:58:56.942Z,11.50
2018-03-31T01:01:24.045Z,9.77
2018-03-31T01:03:51.340Z,11.03
2018-03-31T01:06:18.587Z,10.00
2018-03-31T01:08:49.398Z,12.50
2018-03-31T01:11:16.455Z,15.73
2018-03-31T01:13:43.523Z,11.30
2018-03-31T01:16:10.556Z,9.93
2018-03-31T01:18:37.634Z,11.40
2018-03-31T01:21:04.686Z,12.13
2018-03-31T01:23:31.734Z,11.40
2018-03-31T01:25:58.820Z,12.27
2018-03-31T01:28:25.883Z,10.33
2018-03-31T01:30:52.952Z,11.13
2018-03-31T01:33:20.079Z,14.00
2018-03-31T01:35:47.150Z,15.43
2018-03-31T01:38:14.192Z,13.30
2018-03-31T01:40:41.255Z,13.97
2018-03-31T01:43:08.295Z,11.43
2018-03-31T01:45:35.355Z,12.30
2018-03-31T01:48:02.545Z,15.10
2018-03-31T01:50:29.636Z,15.63
2018-03-31T01:52:56.680Z,14.97
2018-03-31T01:55:23.756Z,14.63
2018-03-31T01:57:50.800Z,16.27
2018-03-31T02:00:17.866Z,15.97
2018-03-31T02:02:44.909Z,18.70
2018-03-31T02:05:11.981Z,20.00
2018-03-31T02:07:39.793Z,21.77
2018-03-31T02:10:06.951Z,21.70
2018-03-31T02:12:34.840Z,22.87
2018-03-31T02:15:01.906Z,21.40
2018-03-31T02:17:29.001Z,20.00
2018-03-31T02:19:56.064Z,20.80
2018-03-31T02:22:23.107Z,22.10
2018-03-31T02:24:50.176Z,25.33
2018-03-31T02:27:17.215Z,22.80
2018-03-31T02:29:44.286Z,21.07
2018-03-31T02:32:11.327Z,21.67
2018-03-31T02:34:38.410Z,19.33
2018-03-31T02:37:06.220Z,19.53
2018-03-31T02:39:33.307Z,20.00
2018-03-31T02:42:01.143Z,19.10
2018-03-31T02:44:28.209Z,18.20
2018-03-31T02:46:55.300Z,21.67
2018-03-31T02:49:22.331Z,19.67
2018-03-31T02:51:50.180Z,22.23
2018-03-31T02:54:18.007Z,20.37
2018-03-31T02:56:45.096Z,20.00
2018-03-31T02:59:12.145Z,21.60
2018-03-31T03:01:39.213Z,21.40
2018-03-31T03:04:07.015Z,20.77
2018-03-31T03:06:34.119Z,25.30
2018-03-31T03:09:01.938Z,20.37
2018-03-31T03:11:29.092Z,18.27
2018-03-31T03:13:56.130Z,21.67
2018-03-31T03:16:23.202Z,18.67
2018-03-31T03:18:50.251Z,22.63
2018-03-31T03:21:17.310Z,20.33
2018-03-31T03:23:44.346Z,22.00
2018-03-31T03:26:11.410Z,36.93
2018-03-31T03:28:38.463Z,22.60
2018-03-31T03:31:05.540Z,20.63
2018-03-31T03:33:32.591Z,27.70
2018-03-31T03:35:59.635Z,30.83
2018-03-31T03:38:26.698Z,29.63
2018-03-31T03:40:53.738Z,184.77
2018-03-31T03:43:20.813Z,39.07
2018-03-31T03:45:47.864Z,241.37
2018-03-31T03:48:15.418Z,166.63
2018-03-31T03:50:42.479Z,463.23
2018-03-31T03:53:09.538Z,54.60
2018-03-31T03:55:36.589Z,160.63
2018-03-31T03:58:04.458Z,34.50
2018-03-31T04:00:31.505Z,27.60
2018-03-31T04:02:58.570Z,24.20
2018-03-31T04:05:25.626Z,19.47
2018-03-31T04:07:53.474Z,23.13
2018-03-31T04:10:21.454Z,20.20
2018-03-31T04:12:49.285Z,23.90
2018-03-31T04:15:16.346Z,22.17
2018-03-31T04:17:43.386Z,23.13
2018-03-31T04:20:10.451Z,26.77
2018-03-31T04:22:37.487Z,106.17
2018-03-31T04:25:04.568Z,54.50
2018-03-31T04:27:32.387Z,126.80
2018-03-31T04:29:59.443Z,47.23
2018-03-31T04:32:26.486Z,96.43
2018-03-31T04:34:53.550Z,109.80
2018-03-31T04:37:20.590Z,140.43
2018-03-31T04:39:47.669Z,77.33
2018-03-31T04:42:14.710Z,69.80
2018-03-31T04:44:41.776Z,61.23
2018-03-31T04:47:09.590Z,264.17
2018-03-31T04:49:36.635Z,245.67
2018-03-31T04:52:03.715Z,141.00
2018-03-31T04:54:30.759Z,147.07
2018-03-31T04:56:57.833Z,421.20
2018-03-31T04:59:25.643Z,378.07
2018-03-31T05:01:52.707Z,321.57
2018-03-31T05:04:19.762Z,31.93
2018-03-31T05:06:46.846Z,52.33
2018-03-31T05:09:14.663Z,262.13
2018-03-31T05:11:41.738Z,229.00
2018-03-31T05:14:08.782Z,333.40
2018-03-31T05:16:35.850Z,265.57
2018-03-31T05:19:03.678Z,143.48
2018-03-31T05:21:30.754Z,138.87
2018-03-31T05:23:57.798Z,155.93
2018-03-31T05:26:24.865Z,152.93
2018-03-31T05:28:52.690Z,290.53
2018-03-31T05:31:19.759Z,154.03
2018-03-31T05:33:46.802Z,189.37
2018-03-31T05:36:13.875Z,210.87
2018-03-31T05:38:41.763Z,163.77
2018-03-31T05:41:08.837Z,370.73
2018-03-31T05:43:35.892Z,527.23
2018-03-31T05:46:02.949Z,459.30
2018-03-31T05:48:29.995Z,342.37
2018-03-31T05:50:57.075Z,372.93
2018-03-31T05:53:24.119Z,357.07
2018-03-31T05:55:51.180Z,446.90
2018-03-31T05:58:18.991Z,216.03
2018-03-31T06:00:46.072Z,417.83
2018-03-31T06:03:13.124Z,258.70
2018-03-31T06:05:40.186Z,403.50
2018-03-31T06:08:07.231Z,360.37
2018-03-31T06:10:34.284Z,277.30
2018-03-31T06:13:01.352Z,277.07
2018-03-31T06:15:29.153Z,360.33
2018-03-31T06:17:56.225Z,244.80
2018-03-31T06:20:23.274Z,214.27
2018-03-31T06:22:50.342Z,269.07
2018-03-31T06:25:17.395Z,339.63
2018-03-31T06:27:45.249Z,217.33
2018-03-31T06:30:12.286Z,223.03
2018-03-31T06:53:28.273Z,286.87
2018-03-31T06:55:55.315Z,570.80
2018-03-31T06:58:22.432Z,230.80
2018-03-31T07:00:49.438Z,420.47
2018-03-31T07:03:16.488Z,377.07
2018-03-31T07:05:43.560Z,268.93
2018-03-31T07:08:10.602Z,257.33
2018-03-31T07:10:37.676Z,344.60
2018-03-31T07:13:05.494Z,306.43
2018-03-31T07:15:32.610Z,288.57
2018-03-31T07:17:59.626Z,341.43
2018-03-31T07:20:26.698Z,395.53
2018-03-31T07:22:54.511Z,404.23
2018-03-31T07:25:21.666Z,376.83
2018-03-31T07:27:48.727Z,372.30
2018-03-31T07:30:15.791Z,229.63
2018-03-31T07:32:42.831Z,295.70
2018-03-31T07:35:09.870Z,404.00
2018-03-31T07:37:36.946Z,319.97
2018-03-31T07:40:03.985Z,370.77
2018-03-31T07:42:31.051Z,384.13
2018-03-31T07:44:58.870Z,599.77
2018-03-31T07:47:25.943Z,575.90
2018-03-31T07:49:52.987Z,351.53
2018-03-31T07:52:20.054Z,255.37
2018-03-31T07:54:47.867Z,708.63
2018-03-31T07:57:14.930Z,439.27
2018-03-31T07:59:41.969Z,139.23
2018-03-31T08:02:09.032Z,379.90
2018-03-31T08:04:36.065Z,409.67
2018-03-31T08:07:03.126Z,219.20
2018-03-31T08:09:30.176Z,257.60
2018-03-31T08:11:57.254Z,145.43
2018-03-31T08:14:24.298Z,341.57
2018-03-31T08:16:52.139Z,381.17
2018-03-31T08:19:19.183Z,337.30
2018-03-31T08:21:46.259Z,233.97
2018-03-31T08:24:13.303Z,373.07
2018-03-31T08:26:40.368Z,365.87
2018-03-31T08:29:08.182Z,280.87
2018-03-31T08:31:35.246Z,272.67
2018-03-31T08:34:02.296Z,108.90
2018-03-31T08:36:29.358Z,112.23
2018-03-31T08:38:56.399Z,200.80
2018-03-31T08:41:23.466Z,166.00
2018-03-31T08:43:50.519Z,263.63
2018-03-31T08:46:18.355Z,90.90
2018-03-31T08:48:45.413Z,245.80
2018-03-31T08:51:12.564Z,128.33
2018-03-31T08:53:39.681Z,233.20
2018-03-31T08:56:06.747Z,61.10
2018-03-31T08:58:34.566Z,71.73
2018-03-31T09:01:01.634Z,102.73
2018-03-31T09:03:28.674Z,63.90
2018-03-31T09:05:55.750Z,84.13
2018-03-31T09:08:22.795Z,61.70
2018-03-31T09:10:49.853Z,89.90
2018-03-31T09:13:16.885Z,54.57
2018-03-31T09:15:43.946Z,82.83
2018-03-31T09:18:10.983Z,66.83
2018-03-31T09:20:38.031Z,72.40
2018-03-31T09:23:05.097Z,67.17
2018-03-31T09:25:32.134Z,66.53
2018-03-31T09:27:59.203Z,67.43
2018-03-31T09:30:27.755Z,58.80
2018-03-31T09:32:54.833Z,53.07
2018-03-31T09:35:21.881Z,51.77
2018-03-31T09:37:48.995Z,48.50
2018-03-31T09:40:16.047Z,45.10
2018-03-31T09:42:43.116Z,48.53
2018-03-31T09:45:10.160Z,40.20
2018-03-31T09:47:37.226Z,51.00
2018-03-31T09:50:04.263Z,51.77
2018-03-31T09:52:31.331Z,46.13
2018-03-31T09:54:58.367Z,42.43
2018-03-31T09:57:25.435Z,40.50
2018-03-31T09:59:52.488Z,37.20
2018-03-31T10:02:20.318Z,34.60
2018-03-31T10:04:47.363Z,34.50
2018-03-31T10:07:14.451Z,34.23
2018-03-31T10:09:42.262Z,33.40
2018-03-31T10:12:09.344Z,40.23
2018-03-31T10:14:36.386Z,38.80
2018-03-31T10:17:03.479Z,38.23
2018-03-31T10:19:30.510Z,35.40
2018-03-31T10:21:58.367Z,38.03
2018-03-31T10:24:25.442Z,40.53
2018-03-31T10:26:52.494Z,39.17
2018-03-31T10:29:19.560Z,40.80
2018-03-31T10:31:46.600Z,48.40
2018-03-31T10:34:13.671Z,40.93
2018-03-31T10:36:40.710Z,34.83
2018-03-31T10:39:07.779Z,37.77
2018-03-31T10:41:34.818Z,34.30
2018-03-31T10:44:01.935Z,38.50
2018-03-31T10:46:28.969Z,38.10
2018-03-31T10:48:56.803Z,41.47
2018-03-31T10:51:23.841Z,40.27
2018-03-31T10:53:50.902Z,40.67
2018-03-31T10:56:17.945Z,36.87
2018-03-31T10:58:45.747Z,36.00
2018-03-31T11:01:13.575Z,32.07
2018-03-31T11:03:40.620Z,34.80
2018-03-31T11:06:07.691Z,34.70
2018-03-31T11:08:34.732Z,35.00
2018-03-31T11:11:01.805Z,28.97
2018-03-31T11:13:29.611Z,27.73
2018-03-31T11:15:56.672Z,27.53
2018-03-31T11:18:23.716Z,26.57
2018-03-31T11:20:51.554Z,22.67
2018-03-31T11:23:18.589Z,21.53
2018-03-31T11:25:45.653Z,23.43
2018-03-31T11:28:12.708Z,20.40
2018-03-31T11:30:39.789Z,25.93
2018-03-31T11:33:06.838Z,19.80
2018-03-31T11:35:33.906Z,22.70
2018-03-31T11:38:00.955Z,25.50
2018-03-31T11:40:28.758Z,17.70
2018-03-31T11:42:55.826Z,15.97
2018-03-31T11:45:22.860Z,14.30
2018-03-31T11:47:49.931Z,12.13
2018-03-31T11:50:17.742Z,10.20
2018-03-31T11:52:45.579Z,11.53
2018-03-31T11:55:12.678Z,10.50
2018-03-31T11:57:39.747Z,12.70
2018-03-31T12:00:06.792Z,10.67
2018-03-31T12:02:33.854Z,8.80
2018-03-31T12:05:00.903Z,6.47
2018-03-31T12:07:27.987Z,5.50
2018-03-31T12:09:55.051Z,6.67
2018-03-31T12:12:22.887Z,11.50
2018-03-31T12:14:49.922Z,9.17
2018-03-31T12:17:17.006Z,6.43
2018-03-31T12:19:44.810Z,5.57
2018-03-31T12:22:11.857Z,7.00
2018-03-31T12:24:38.923Z,4.50
2018-03-31T12:27:06.768Z,4.67
2018-03-31T12:29:33.810Z,6.63
2018-03-31T12:32:00.852Z,5.80
2018-03-31T12:34:28.692Z,4.10
2018-03-31T12:36:55.738Z,5.50
2018-03-31T12:39:23.566Z,4.33
2018-03-31T12:41:50.602Z,3.80
2018-03-31T12:44:17.665Z,6.20
2018-03-31T12:46:44.711Z,5.43
2018-03-31T12:49:12.552Z,5.30
2018-03-31T12:51:39.632Z,5.87
2018-03-31T12:54:06.719Z,3.83
2018-03-31T12:56:34.219Z,8.87
2018-03-31T12:59:01.292Z,7.53
2018-03-31T13:01:28.331Z,4.43
2018-03-31T13:03:55.402Z,5.37
2018-03-31T13:06:22.454Z,5.07
2018-03-31T13:08:49.521Z,3.23
2018-03-31T13:11:17.339Z,7.43
2018-03-31T13:13:44.378Z,7.73
2018-03-31T13:16:11.442Z,5.60
2018-03-31T13:18:38.483Z,6.40
2018-03-31T13:21:05.548Z,6.47
2018-03-31T13:23:32.596Z,5.97
2018-03-31T13:25:59.667Z,4.73
2018-03-31T13:28:27.482Z,5.90
2018-03-31T13:30:54.543Z,4.70
2018-03-31T13:33:21.589Z,4.60
2018-03-31T13:35:48.655Z,5.33
2018-03-31T13:38:15.695Z,4.70
2018-03-31T13:40:42.770Z,4.90
2018-03-31T13:43:09.811Z,4.37
2018-03-31T13:45:36.881Z,6.87
2018-03-31T13:48:04.691Z,6.60
2018-03-31T13:50:31.763Z,5.53
2018-03-31T13:52:58.802Z,6.70
2018-03-31T13:55:25.851Z,6.43
2018-03-31T13:57:52.960Z,5.93
2018-03-31T14:00:20.006Z,4.20
2018-03-31T14:02:47.074Z,3.43
2018-03-31T14:05:14.117Z,6.83
2018-03-31T14:07:41.186Z,6.27
2018-03-31T14:10:08.232Z,6.10
2018-03-31T14:12:35.323Z,5.00
2018-03-31T14:15:03.133Z,4.17
2018-03-31T14:17:30.356Z,4.60
2018-03-31T14:19:58.198Z,4.47
2018-03-31T14:22:25.259Z,4.47
2018-03-31T14:24:53.066Z,5.60
2018-03-31T14:27:20.130Z,4.90
2018-03-31T14:29:47.216Z,5.50
2018-03-31T14:32:15.095Z,4.33
2018-03-31T14:34:42.895Z,6.10
2018-03-31T14:37:09.959Z,5.63
2018-03-31T14:39:37.003Z,6.40
2018-03-31T14:42:04.073Z,3.13
2018-03-31T14:44:31.110Z,5.70
2018-03-31T14:46:58.220Z,3.87
2018-03-31T14:49:25.234Z,3.60
2018-03-31T14:51:53.067Z,3.57
2018-03-31T14:54:20.102Z,4.80
2018-03-31T14:56:47.171Z,3.90
2018-03-31T14:59:14.218Z,4.00
2018-03-31T15:01:41.262Z,2.97
2018-03-31T15:04:08.334Z,4.20
2018-03-31T15:06:35.370Z,3.00
2018-03-31T15:09:02.442Z,4.40
2018-03-31T15:11:30.255Z,3.93
2018-03-31T15:13:57.336Z,3.40
2018-03-31T15:16:24.381Z,3.40
2018-03-31T15:18:51.454Z,5.33
2018-03-31T15:21:19.276Z,4.10
2018-03-31T15:23:46.338Z,3.87
2018-03-31T15:26:13.374Z,3.80
2018-03-31T15:28:40.511Z,4.80
2018-03-31T15:31:07.528Z,4.20
2018-03-31T15:33:35.355Z,3.07
2018-03-31T15:36:02.409Z,3.03
2018-03-31T15:38:29.447Z,3.90
2018-03-31T15:40:56.518Z,3.63
2018-03-31T15:43:23.550Z,3.87
2018-03-31T15:45:50.614Z,3.43
2018-03-31T15:48:17.716Z,4.27
2018-03-31T15:50:45.507Z,4.20
2018-03-31T15:53:12.551Z,7.57
2018-03-31T15:55:39.625Z,4.47
2018-03-31T15:58:07.441Z,3.60
2018-03-31T16:00:34.511Z,4.90
2018-03-31T16:03:01.552Z,6.60
2018-03-31T16:05:28.614Z,4.00
2018-03-31T16:07:55.655Z,4.00
2018-03-31T16:10:22.722Z,5.33
2018-03-31T16:12:49.762Z,4.10
2018-03-31T16:15:16.847Z,6.50
2018-03-31T16:17:44.661Z,3.53
2018-03-31T16:20:11.737Z,7.03
2018-03-31T16:22:38.781Z,4.03
2018-03-31T16:25:05.831Z,5.00
2018-03-31T16:27:32.904Z,3.90
2018-03-31T16:30:00.718Z,3.27
2018-03-31T16:32:27.792Z,3.97
2018-03-31T16:34:54.832Z,4.23
2018-03-31T16:37:21.902Z,5.83
2018-03-31T16:39:49.702Z,3.30
2018-03-31T16:42:16.779Z,3.13
2018-03-31T16:44:43.826Z,4.93
2018-03-31T16:47:10.898Z,5.20
2018-03-31T16:49:37.938Z,3.10
2018-03-31T16:52:05.010Z,3.67
2018-03-31T16:54:32.821Z,2.60
2018-03-31T16:56:59.891Z,4.00
2018-03-31T16:59:26.936Z,2.90
2018-03-31T17:01:53.991Z,2.77
2018-03-31T17:04:21.072Z,3.07
2018-03-31T17:06:48.887Z,4.93
2018-03-31T17:09:15.957Z,2.93
2018-03-31T17:11:43.006Z,3.30
2018-03-31T17:14:10.083Z,3.23
2018-03-31T17:16:37.890Z,2.50
2018-03-31T17:19:04.954Z,7.93
2018-03-31T17:21:31.998Z,4.67
2018-03-31T17:23:59.062Z,3.37
2018-03-31T17:26:26.098Z,2.90
2018-03-31T17:28:53.166Z,5.23
2018-03-31T17:31:20.206Z,3.60
2018-03-31T17:33:47.284Z,3.33
2018-03-31T17:36:15.102Z,3.63
2018-03-31T17:38:42.167Z,4.30
2018-03-31T17:41:09.213Z,3.20
2018-03-31T17:43:36.263Z,3.07
2018-03-31T17:46:03.342Z,3.60
2018-03-31T17:48:31.154Z,6.17
2018-03-31T17:50:58.217Z,3.00
2018-03-31T17:53:25.267Z,2.50
2018-03-31T17:55:52.331Z,3.83
2018-03-31T17:58:19.375Z,3.50
2018-03-31T18:00:46.442Z,3.20
2018-03-31T18:03:13.486Z,3.23
2018-03-31T18:05:40.552Z,2.60
2018-03-31T18:08:08.374Z,4.10
2018-03-31T18:10:35.443Z,2.83
2018-03-31T18:13:02.486Z,4.03
2018-03-31T18:15:29.541Z,2.93
2018-03-31T18:17:56.606Z,3.30
2018-03-31T18:20:24.414Z,3.00
2018-03-31T18:22:51.479Z,5.27
2018-03-31T18:25:18.516Z,4.73
2018-03-31T18:27:45.580Z,5.73
2018-03-31T18:30:12.627Z,3.40
2018-03-31T18:32:39.708Z,3.83
2018-03-31T18:35:07.517Z,3.40
2018-03-31T18:37:34.575Z,9.83
2018-03-31T18:40:01.613Z,5.60
2018-03-31T18:42:29.437Z,5.33
2018-03-31T18:44:57.251Z,2.90
2018-03-31T18:47:24.299Z,7.00
2018-03-31T18:49:51.358Z,4.00
2018-03-31T18:52:18.400Z,2.60
2018-03-31T18:54:45.471Z,2.43
2018-03-31T18:57:12.514Z,2.67
2018-03-31T18:59:39.598Z,4.83
2018-03-31T19:02:08.424Z,3.27
2018-03-31T19:04:35.491Z,2.97
2018-03-31T19:07:02.532Z,3.20
2018-03-31T19:09:29.606Z,2.70
2018-03-31T19:11:56.643Z,3.77
2018-03-31T19:14:23.904Z,3.23
2018-03-31T19:16:56.699Z,2.73
2018-03-31T19:19:23.740Z,3.23
2018-03-31T19:21:50.808Z,5.17
2018-03-31T19:24:18.620Z,3.77
2018-03-31T19:26:45.688Z,3.13
2018-03-31T19:29:12.733Z,2.90
2018-03-31T19:31:39.803Z,2.50
2018-03-31T19:34:06.869Z,5.63
2018-03-31T19:36:34.695Z,3.43
2018-03-31T19:39:01.731Z,3.00
2018-03-31T19:41:28.801Z,2.77
2018-03-31T19:43:55.848Z,2.67
2018-03-31T19:46:22.896Z,3.33
2018-03-31T19:48:49.974Z,3.00
2018-03-31T19:51:17.785Z,2.63
2018-03-31T19:53:44.895Z,4.30
2018-03-31T19:56:11.911Z,3.30
2018-03-31T19:58:38.989Z,3.80
2018-03-31T20:01:06.800Z,4.73
2018-03-31T20:03:33.874Z,5.60
2018-03-31T20:06:00.915Z,4.23
2018-03-31T20:08:27.978Z,4.60
2018-03-31T20:10:55.019Z,4.70
2018-03-31T20:13:22.088Z,3.40
2018-03-31T20:15:49.902Z,5.80
2018-03-31T20:18:16.964Z,3.50
2018-03-31T20:20:44.004Z,4.30
2018-03-31T20:23:11.070Z,3.50
2018-03-31T20:25:38.135Z,3.83
2018-03-31T20:28:05.171Z,5.97
2018-03-31T20:30:32.247Z,6.40
2018-03-31T20:33:00.057Z,8.00
2018-03-31T20:35:27.122Z,6.60
2018-03-31T20:37:54.167Z,10.27
2018-03-31T20:40:22.021Z,5.93
2018-03-31T20:42:49.059Z,5.40
2018-03-31T20:45:16.132Z,12.20
2018-03-31T20:47:43.179Z,4.73
2018-03-31T20:50:10.241Z,8.87
2018-03-31T20:52:37.291Z,6.83
2018-03-31T20:55:04.365Z,16.43
2018-03-31T20:57:32.175Z,8.40
2018-03-31T20:59:59.239Z,6.90
2018-03-31T21:02:26.343Z,7.53
2018-03-31T21:04:54.224Z,7.30
2018-03-31T21:07:21.288Z,13.57
2018-03-31T21:09:48.325Z,10.67
2018-03-31T21:12:15.599Z,22.63
2018-03-31T21:14:42.725Z,12.30
2018-03-31T21:17:09.794Z,9.20
2018-03-31T21:19:36.832Z,14.93
2018-03-31T21:22:03.894Z,12.90
2018-03-31T21:24:30.943Z,16.30
2018-03-31T21:26:58.019Z,11.70
2018-03-31T21:29:25.119Z,14.00
2018-03-31T21:31:52.930Z,12.17
2018-03-31T21:34:19.975Z,12.57
2018-03-31T21:36:47.241Z,11.90
2018-03-31T21:39:14.328Z,6.77
2018-03-31T21:41:41.375Z,11.17
2018-03-31T21:44:08.673Z,6.80
2018-03-31T21:46:35.714Z,9.33
2018-03-31T21:49:02.782Z,9.67
2018-03-31T21:51:29.830Z,7.80
2018-03-31T21:53:56.891Z,9.03
2018-03-31T21:56:23.991Z,7.50
2018-03-31T21:58:51.050Z,9.20
2018-03-31T22:01:18.090Z,7.57
2018-03-31T22:03:45.201Z,6.87
2018-03-31T22:06:12.251Z,6.40
2018-03-31T22:08:40.083Z,4.97
2018-03-31T22:11:07.159Z,4.93
2018-03-31T22:13:40.577Z,7.70
2018-03-31T22:16:07.622Z,6.40
2018-03-31T22:18:34.654Z,5.20
2018-03-31T22:21:02.471Z,4.80
2018-03-31T22:23:29.515Z,6.63
2018-03-31T22:25:56.574Z,6.70
2018-03-31T22:28:23.616Z,5.20
2018-03-31T22:30:50.679Z,6.87
2018-03-31T22:33:17.716Z,6.43
2018-03-31T22:35:44.775Z,5.80
2018-03-31T22:38:11.823Z,6.33
2018-03-31T22:40:38.888Z,8.90
2018-03-31T22:43:14.063Z,9.87
2018-03-31T22:45:41.131Z,8.97
2018-03-31T22:48:08.174Z,15.10
2018-03-31T22:50:35.202Z,6.07
2018-03-31T22:53:08.738Z,9.97
2018-03-31T22:55:35.782Z,12.40
2018-03-31T22:58:02.916Z,6.60
2018-03-31T23:00:29.951Z,6.20
2018-03-31T23:02:57.011Z,5.17
2018-03-31T23:05:24.047Z,4.40
2018-03-31T23:07:51.158Z,4.93
2018-03-31T23:10:18.194Z,6.60
2018-03-31T23:12:45.254Z,4.23
2018-03-31T23:15:12.296Z,3.73
2018-03-31T23:17:39.350Z,3.33
2018-03-31T23:20:06.399Z,4.07
2018-03-31T23:22:33.442Z,3.47
2018-03-31T23:25:00.502Z,5.27
2018-03-31T23:27:28.354Z,3.23
2018-03-31T23:29:55.388Z,4.17
2018-03-31T23:32:39.510Z,4.07
2018-03-31T23:35:06.571Z,3.90
2018-03-31T23:37:33.606Z,6.70
2018-03-31T23:40:00.667Z,3.17
2018-03-31T23:42:27.703Z,5.20
2018-03-31T23:44:54.766Z,3.30
2018-03-31T23:47:21.815Z,3.80
2018-03-31T23:49:49.639Z,4.37
2018-03-31T23:52:16.682Z,4.07
2018-03-31T23:54:44.518Z,4.90
2018-03-31T23:57:11.556Z,5.00
2018-03-31T23:59:38.614Z,4.90
